sensor_id;sensor_type;location;lat;lon;timestamp;temperature;humidity
43338;DHT22;28933;52.492;13.434;2023-09-19T00:01:12;19.90;99.90
43338;DHT22;28933;52.492;13.434;2023-09-19T00:04:02;19.90;99.90
43338;DHT22;28933;52.492;13.434;2023-09-19T00:06:48;19.90;99.90
43338;DHT22;28933;52.492;13.434;2023-09-19T00:09:34;19.90;99.90
43338;DHT22;28933;52.492;13.434;2023-09-19T00:12:23;19.90;99.90
43338;DHT22;28933;52.492;13.434;2023-09-19T00:15:09;19.80;99.90
43338;DHT22;28933;52.492;13.434;2023-09-19T00:17:56;19.80;99.90
43338;DHT22;28933;52.492;13.434;2023-09-19T00:20:42;19.80;99.90
43338;DHT22;28933;52.492;13.434;2023-09-19T00:23:28;19.80;99.90
43338;DHT22;28933;52.492;13.434;2023-09-19T00:26:15;19.80;99.90
43338;DHT22;28933;52.492;13.434;2023-09-19T00:29:00;19.80;99.90
43338;DHT22;28933;52.492;13.434;2023-09-19T00:31:54;19.70;99.90
43338;DHT22;28933;52.492;13.434;2023-09-19T00:34:39;19.70;99.90
43338;DHT22;28933;52.492;13.434;2023-09-19T00:37:25;19.70;99.90
43338;DHT22;28933;52.492;13.434;2023-09-19T00:40:11;19.70;99.90
43338;DHT22;28933;52.492;13.434;2023-09-19T00:42:58;19.70;99.90
43338;DHT22;28933;52.492;13.434;2023-09-19T00:45:48;19.70;99.90
43338;DHT22;28933;52.492;13.434;2023-09-19T00:48:41;19.60;99.90
43338;DHT22;28933;52.492;13.434;2023-09-19T00:51:29;19.60;99.90
43338;DHT22;28933;52.492;13.434;2023-09-19T00:54:16;19.60;99.90
43338;DHT22;28933;52.492;13.434;2023-09-19T00:57:04;19.50;99.90
43338;DHT22;28933;52.492;13.434;2023-09-19T00:59:51;19.50;99.90
43338;DHT22;28933;52.492;13.434;2023-09-19T01:02:39;19.50;99.90
43338;DHT22;28933;52.492;13.434;2023-09-19T01:05:25;19.50;99.90
43338;DHT22;28933;52.492;13.434;2023-09-19T01:08:11;19.50;99.90
43338;DHT22;28933;52.492;13.434;2023-09-19T01:17:46;19.40;99.90
43338;DHT22;28933;52.492;13.434;2023-09-19T01:27:06;19.40;99.90
43338;DHT22;28933;52.492;13.434;2023-09-19T01:30:10;19.40;99.90
43338;DHT22;28933;52.492;13.434;2023-09-19T01:32:57;19.40;99.90
43338;DHT22;28933;52.492;13.434;2023-09-19T01:35:45;19.40;99.90
43338;DHT22;28933;52.492;13.434;2023-09-19T01:38:31;19.50;99.90
43338;DHT22;28933;52.492;13.434;2023-09-19T01:41:26;19.50;99.90
43338;DHT22;28933;52.492;13.434;2023-09-19T01:45:03;19.50;99.90
43338;DHT22;28933;52.492;13.434;2023-09-19T01:47:34;19.50;99.90
43338;DHT22;28933;52.492;13.434;2023-09-19T01:50:42;19.50;99.90
43338;DHT22;28933;52.492;13.434;2023-09-19T01:59:45;19.50;99.90
43338;DHT22;28933;52.492;13.434;2023-09-19T02:02:38;19.50;99.90
43338;DHT22;28933;52.492;13.434;2023-09-19T02:05:25;19.50;99.90
43338;DHT22;28933;52.492;13.434;2023-09-19T02:08:16;19.60;99.90
43338;DHT22;28933;52.492;13.434;2023-09-19T02:11:02;19.60;99.90
43338;DHT22;28933;52.492;13.434;2023-09-19T02:13:50;19.50;99.90
43338;DHT22;28933;52.492;13.434;2023-09-19T02:16:39;19.50;99.90
43338;DHT22;28933;52.492;13.434;2023-09-19T02:19:26;19.50;99.90
43338;DHT22;28933;52.492;13.434;2023-09-19T02:22:12;19.50;99.90
43338;DHT22;28933;52.492;13.434;2023-09-19T02:24:58;19.50;99.90
43338;DHT22;28933;52.492;13.434;2023-09-19T02:27:46;19.50;99.90
43338;DHT22;28933;52.492;13.434;2023-09-19T02:30:32;19.50;99.90
43338;DHT22;28933;52.492;13.434;2023-09-19T02:33:18;19.50;99.90
43338;DHT22;28933;52.492;13.434;2023-09-19T02:36:05;19.40;99.90
43338;DHT22;28933;52.492;13.434;2023-09-19T02:38:51;19.40;99.90
43338;DHT22;28933;52.492;13.434;2023-09-19T02:41:37;19.40;99.90
43338;DHT22;28933;52.492;13.434;2023-09-19T02:44:23;19.40;99.90
43338;DHT22;28933;52.492;13.434;2023-09-19T02:47:09;19.40;99.90
43338;DHT22;28933;52.492;13.434;2023-09-19T02:49:55;19.40;99.90
43338;DHT22;28933;52.492;13.434;2023-09-19T02:52:45;19.40;99.90
43338;DHT22;28933;52.492;13.434;2023-09-19T02:55:34;19.40;99.90
43338;DHT22;28933;52.492;13.434;2023-09-19T02:58:20;19.40;99.90
43338;DHT22;28933;52.492;13.434;2023-09-19T03:01:12;19.30;99.90
43338;DHT22;28933;52.492;13.434;2023-09-19T03:03:58;19.30;99.90
43338;DHT22;28933;52.492;13.434;2023-09-19T03:06:44;19.30;99.90
43338;DHT22;28933;52.492;13.434;2023-09-19T03:09:30;19.30;99.90
43338;DHT22;28933;52.492;13.434;2023-09-19T03:12:16;19.30;99.90
43338;DHT22;28933;52.492;13.434;2023-09-19T03:15:03;19.30;99.90
43338;DHT22;28933;52.492;13.434;2023-09-19T03:17:50;19.30;99.90
43338;DHT22;28933;52.492;13.434;2023-09-19T03:20:39;19.30;99.90
43338;DHT22;28933;52.492;13.434;2023-09-19T03:23:25;19.30;99.90
43338;DHT22;28933;52.492;13.434;2023-09-19T03:26:12;19.30;99.90
43338;DHT22;28933;52.492;13.434;2023-09-19T03:28:59;19.40;99.90
43338;DHT22;28933;52.492;13.434;2023-09-19T03:31:45;19.40;99.90
43338;DHT22;28933;52.492;13.434;2023-09-19T03:34:31;19.40;99.90
43338;DHT22;28933;52.492;13.434;2023-09-19T03:37:17;19.30;99.90
43338;DHT22;28933;52.492;13.434;2023-09-19T03:40:04;19.30;99.90
43338;DHT22;28933;52.492;13.434;2023-09-19T03:42:50;19.30;99.90
43338;DHT22;28933;52.492;13.434;2023-09-19T03:45:36;19.30;99.90
43338;DHT22;28933;52.492;13.434;2023-09-19T03:48:24;19.30;99.90
43338;DHT22;28933;52.492;13.434;2023-09-19T03:51:10;19.30;99.90
43338;DHT22;28933;52.492;13.434;2023-09-19T03:53:56;19.30;99.90
43338;DHT22;28933;52.492;13.434;2023-09-19T03:56:42;19.30;99.90
43338;DHT22;28933;52.492;13.434;2023-09-19T03:59:29;19.30;99.90
43338;DHT22;28933;52.492;13.434;2023-09-19T04:02:15;19.30;99.90
43338;DHT22;28933;52.492;13.434;2023-09-19T04:05:08;19.30;99.90
43338;DHT22;28933;52.492;13.434;2023-09-19T04:07:54;19.30;99.90
43338;DHT22;28933;52.492;13.434;2023-09-19T04:10:43;19.20;99.90
43338;DHT22;28933;52.492;13.434;2023-09-19T04:13:30;19.20;99.90
43338;DHT22;28933;52.492;13.434;2023-09-19T04:16:16;19.20;99.90
43338;DHT22;28933;52.492;13.434;2023-09-19T04:19:02;19.20;99.90
43338;DHT22;28933;52.492;13.434;2023-09-19T04:21:49;19.20;99.90
43338;DHT22;28933;52.492;13.434;2023-09-19T04:24:35;19.10;99.90
43338;DHT22;28933;52.492;13.434;2023-09-19T04:27:21;19.10;99.90
43338;DHT22;28933;52.492;13.434;2023-09-19T04:30:08;19.10;99.90
43338;DHT22;28933;52.492;13.434;2023-09-19T04:32:57;19.10;99.90
43338;DHT22;28933;52.492;13.434;2023-09-19T04:35:43;19.10;99.90
43338;DHT22;28933;52.492;13.434;2023-09-19T04:38:29;19.00;99.90
43338;DHT22;28933;52.492;13.434;2023-09-19T04:41:15;19.00;99.90
43338;DHT22;28933;52.492;13.434;2023-09-19T04:44:01;19.00;99.90
43338;DHT22;28933;52.492;13.434;2023-09-19T04:46:47;19.00;99.90
43338;DHT22;28933;52.492;13.434;2023-09-19T04:49:33;19.00;99.90
43338;DHT22;28933;52.492;13.434;2023-09-19T04:52:20;19.00;99.90
43338;DHT22;28933;52.492;13.434;2023-09-19T04:55:06;19.00;99.90
43338;DHT22;28933;52.492;13.434;2023-09-19T04:57:53;19.00;99.90
43338;DHT22;28933;52.492;13.434;2023-09-19T05:00:39;19.00;99.90
43338;DHT22;28933;52.492;13.434;2023-09-19T05:03:25;19.00;99.90
43338;DHT22;28933;52.492;13.434;2023-09-19T05:06:11;18.90;99.90
43338;DHT22;28933;52.492;13.434;2023-09-19T05:08:57;19.00;99.90
43338;DHT22;28933;52.492;13.434;2023-09-19T05:11:42;19.00;99.90
43338;DHT22;28933;52.492;13.434;2023-09-19T05:14:29;18.90;99.90
43338;DHT22;28933;52.492;13.434;2023-09-19T05:17:15;18.90;99.90
43338;DHT22;28933;52.492;13.434;2023-09-19T05:20:03;18.90;99.90
43338;DHT22;28933;52.492;13.434;2023-09-19T05:23:03;18.90;99.90
43338;DHT22;28933;52.492;13.434;2023-09-19T05:25:51;18.90;99.90
43338;DHT22;28933;52.492;13.434;2023-09-19T05:28:37;18.80;99.90
43338;DHT22;28933;52.492;13.434;2023-09-19T05:31:23;18.80;99.90
43338;DHT22;28933;52.492;13.434;2023-09-19T05:34:11;18.80;99.90
43338;DHT22;28933;52.492;13.434;2023-09-19T05:36:57;18.80;99.90
43338;DHT22;28933;52.492;13.434;2023-09-19T05:39:43;18.80;99.90
43338;DHT22;28933;52.492;13.434;2023-09-19T05:55:24;18.80;99.90
43338;DHT22;28933;52.492;13.434;2023-09-19T05:58:10;18.80;99.80
43338;DHT22;28933;52.492;13.434;2023-09-19T06:00:59;18.80;99.80
43338;DHT22;28933;52.492;13.434;2023-09-19T06:03:45;18.80;99.70
43338;DHT22;28933;52.492;13.434;2023-09-19T06:06:31;18.80;99.70
43338;DHT22;28933;52.492;13.434;2023-09-19T06:09:19;18.80;99.70
43338;DHT22;28933;52.492;13.434;2023-09-19T06:12:08;18.80;99.60
43338;DHT22;28933;52.492;13.434;2023-09-19T06:14:54;18.90;99.60
43338;DHT22;28933;52.492;13.434;2023-09-19T06:17:48;18.80;99.60
43338;DHT22;28933;52.492;13.434;2023-09-19T06:20:34;18.90;99.60
43338;DHT22;28933;52.492;13.434;2023-09-19T06:23:21;18.90;99.50
43338;DHT22;28933;52.492;13.434;2023-09-19T06:26:07;18.90;99.50
43338;DHT22;28933;52.492;13.434;2023-09-19T06:28:53;18.90;99.50
43338;DHT22;28933;52.492;13.434;2023-09-19T06:31:41;18.90;99.50
43338;DHT22;28933;52.492;13.434;2023-09-19T06:34:27;18.90;99.50
43338;DHT22;28933;52.492;13.434;2023-09-19T06:37:13;19.00;99.40
43338;DHT22;28933;52.492;13.434;2023-09-19T06:39:59;19.00;99.40
43338;DHT22;28933;52.492;13.434;2023-09-19T06:42:50;19.00;99.30
43338;DHT22;28933;52.492;13.434;2023-09-19T06:45:36;19.10;99.30
43338;DHT22;28933;52.492;13.434;2023-09-19T06:48:23;19.10;99.30
43338;DHT22;28933;52.492;13.434;2023-09-19T06:51:10;19.10;99.20
43338;DHT22;28933;52.492;13.434;2023-09-19T06:53:56;19.20;99.20
43338;DHT22;28933;52.492;13.434;2023-09-19T06:56:44;19.30;99.10
43338;DHT22;28933;52.492;13.434;2023-09-19T06:59:30;19.30;99.00
43338;DHT22;28933;52.492;13.434;2023-09-19T07:02:18;19.40;98.90
43338;DHT22;28933;52.492;13.434;2023-09-19T07:05:05;19.50;98.90
43338;DHT22;28933;52.492;13.434;2023-09-19T07:07:51;19.50;98.80
43338;DHT22;28933;52.492;13.434;2023-09-19T07:10:38;19.60;98.80
43338;DHT22;28933;52.492;13.434;2023-09-19T07:13:25;19.70;98.70
43338;DHT22;28933;52.492;13.434;2023-09-19T07:16:11;19.80;98.70
43338;DHT22;28933;52.492;13.434;2023-09-19T07:18:59;20.00;98.50
43338;DHT22;28933;52.492;13.434;2023-09-19T07:21:45;20.10;98.20
43338;DHT22;28933;52.492;13.434;2023-09-19T07:24:33;20.20;97.90
43338;DHT22;28933;52.492;13.434;2023-09-19T07:27:19;20.30;97.60
43338;DHT22;28933;52.492;13.434;2023-09-19T07:30:05;20.40;97.50
43338;DHT22;28933;52.492;13.434;2023-09-19T07:32:51;20.50;97.00
43338;DHT22;28933;52.492;13.434;2023-09-19T07:35:38;20.60;96.80
43338;DHT22;28933;52.492;13.434;2023-09-19T07:38:27;20.60;96.40
43338;DHT22;28933;52.492;13.434;2023-09-19T07:41:14;20.70;96.10
43338;DHT22;28933;52.492;13.434;2023-09-19T07:43:59;20.70;96.00
43338;DHT22;28933;52.492;13.434;2023-09-19T07:46:46;20.70;95.80
43338;DHT22;28933;52.492;13.434;2023-09-19T07:49:32;20.80;95.70
43338;DHT22;28933;52.492;13.434;2023-09-19T07:52:18;20.80;95.60
43338;DHT22;28933;52.492;13.434;2023-09-19T07:55:06;20.80;95.20
43338;DHT22;28933;52.492;13.434;2023-09-19T07:57:55;20.80;94.90
43338;DHT22;28933;52.492;13.434;2023-09-19T08:00:42;20.70;94.50
43338;DHT22;28933;52.492;13.434;2023-09-19T08:03:28;20.70;94.50
43338;DHT22;28933;52.492;13.434;2023-09-19T08:06:13;20.70;94.40
43338;DHT22;28933;52.492;13.434;2023-09-19T08:09:00;20.70;94.30
43338;DHT22;28933;52.492;13.434;2023-09-19T08:11:49;20.70;94.10
43338;DHT22;28933;52.492;13.434;2023-09-19T08:14:36;20.70;94.10
43338;DHT22;28933;52.492;13.434;2023-09-19T08:17:23;20.80;94.30
43338;DHT22;28933;52.492;13.434;2023-09-19T08:20:10;20.90;94.30
43338;DHT22;28933;52.492;13.434;2023-09-19T08:23:03;20.90;93.90
43338;DHT22;28933;52.492;13.434;2023-09-19T08:25:49;20.90;93.80
43338;DHT22;28933;52.492;13.434;2023-09-19T08:28:35;21.00;93.60
43338;DHT22;28933;52.492;13.434;2023-09-19T08:31:21;21.00;93.50
43338;DHT22;28933;52.492;13.434;2023-09-19T08:34:08;21.00;93.40
43338;DHT22;28933;52.492;13.434;2023-09-19T08:36:55;20.90;93.20
43338;DHT22;28933;52.492;13.434;2023-09-19T08:39:44;20.90;93.10
43338;DHT22;28933;52.492;13.434;2023-09-19T08:42:30;20.90;93.00
43338;DHT22;28933;52.492;13.434;2023-09-19T08:45:17;20.80;92.90
43338;DHT22;28933;52.492;13.434;2023-09-19T08:51:03;20.70;92.80
43338;DHT22;28933;52.492;13.434;2023-09-19T08:56:39;20.70;93.20
43338;DHT22;28933;52.492;13.434;2023-09-19T08:59:26;20.70;92.90
43338;DHT22;28933;52.492;13.434;2023-09-19T09:02:14;20.70;92.70
43338;DHT22;28933;52.492;13.434;2023-09-19T09:05:01;20.70;92.70
43338;DHT22;28933;52.492;13.434;2023-09-19T09:07:51;20.80;92.60
43338;DHT22;28933;52.492;13.434;2023-09-19T09:10:37;20.70;92.60
43338;DHT22;28933;52.492;13.434;2023-09-19T09:13:24;20.80;92.40
43338;DHT22;28933;52.492;13.434;2023-09-19T09:16:13;20.80;92.20
43338;DHT22;28933;52.492;13.434;2023-09-19T09:18:59;20.90;92.10
43338;DHT22;28933;52.492;13.434;2023-09-19T09:21:45;20.90;92.10
43338;DHT22;28933;52.492;13.434;2023-09-19T09:24:31;20.90;92.00
43338;DHT22;28933;52.492;13.434;2023-09-19T09:27:22;20.90;92.00
43338;DHT22;28933;52.492;13.434;2023-09-19T09:30:09;20.90;92.00
43338;DHT22;28933;52.492;13.434;2023-09-19T09:33:16;21.00;91.70
43338;DHT22;28933;52.492;13.434;2023-09-19T09:36:03;21.20;91.60
43338;DHT22;28933;52.492;13.434;2023-09-19T09:38:50;21.20;91.20
43338;DHT22;28933;52.492;13.434;2023-09-19T09:41:41;21.20;91.00
43338;DHT22;28933;52.492;13.434;2023-09-19T09:44:27;21.30;90.80
43338;DHT22;28933;52.492;13.434;2023-09-19T09:47:47;21.30;90.70
43338;DHT22;28933;52.492;13.434;2023-09-19T09:50:47;21.40;90.80
43338;DHT22;28933;52.492;13.434;2023-09-19T09:53:42;21.50;90.80
43338;DHT22;28933;52.492;13.434;2023-09-19T09:56:31;21.50;90.30
43338;DHT22;28933;52.492;13.434;2023-09-19T09:59:23;21.50;89.80
43338;DHT22;28933;52.492;13.434;2023-09-19T10:02:09;21.60;89.70
43338;DHT22;28933;52.492;13.434;2023-09-19T10:04:59;21.60;89.70
43338;DHT22;28933;52.492;13.434;2023-09-19T10:08:10;21.60;89.40
43338;DHT22;28933;52.492;13.434;2023-09-19T10:10:58;21.60;88.70
43338;DHT22;28933;52.492;13.434;2023-09-19T10:13:51;21.60;87.90
43338;DHT22;28933;52.492;13.434;2023-09-19T10:16:49;21.70;87.50
43338;DHT22;28933;52.492;13.434;2023-09-19T10:19:45;21.70;86.80
43338;DHT22;28933;52.492;13.434;2023-09-19T10:22:35;21.80;86.50
43338;DHT22;28933;52.492;13.434;2023-09-19T10:25:21;21.80;86.30
43338;DHT22;28933;52.492;13.434;2023-09-19T10:28:10;21.80;86.30
43338;DHT22;28933;52.492;13.434;2023-09-19T10:30:57;21.80;85.80
43338;DHT22;28933;52.492;13.434;2023-09-19T10:33:44;21.90;85.70
43338;DHT22;28933;52.492;13.434;2023-09-19T10:36:33;21.90;85.80
43338;DHT22;28933;52.492;13.434;2023-09-19T10:39:21;22.00;85.20
43338;DHT22;28933;52.492;13.434;2023-09-19T10:42:07;22.00;85.10
43338;DHT22;28933;52.492;13.434;2023-09-19T10:44:59;22.10;84.50
43338;DHT22;28933;52.492;13.434;2023-09-19T10:47:45;22.10;83.90
43338;DHT22;28933;52.492;13.434;2023-09-19T10:51:06;22.10;84.20
43338;DHT22;28933;52.492;13.434;2023-09-19T10:54:04;22.00;83.90
43338;DHT22;28933;52.492;13.434;2023-09-19T10:56:53;22.00;83.10
43338;DHT22;28933;52.492;13.434;2023-09-19T11:00:00;21.90;83.10
43338;DHT22;28933;52.492;13.434;2023-09-19T11:03:20;21.90;82.30
43338;DHT22;28933;52.492;13.434;2023-09-19T11:06:16;21.90;81.50
43338;DHT22;28933;52.492;13.434;2023-09-19T11:09:03;21.90;81.10
43338;DHT22;28933;52.492;13.434;2023-09-19T11:11:55;21.90;81.10
43338;DHT22;28933;52.492;13.434;2023-09-19T11:14:43;21.90;80.60
43338;DHT22;28933;52.492;13.434;2023-09-19T11:17:43;21.90;80.30
43338;DHT22;28933;52.492;13.434;2023-09-19T11:20:36;22.00;80.50
43338;DHT22;28933;52.492;13.434;2023-09-19T11:23:27;22.00;80.10
43338;DHT22;28933;52.492;13.434;2023-09-19T11:26:43;22.00;78.90
43338;DHT22;28933;52.492;13.434;2023-09-19T11:29:34;22.00;78.90
43338;DHT22;28933;52.492;13.434;2023-09-19T11:36:09;22.00;78.50
43338;DHT22;28933;52.492;13.434;2023-09-19T11:38:57;22.00;78.10
43338;DHT22;28933;52.492;13.434;2023-09-19T11:41:43;22.00;77.90
43338;DHT22;28933;52.492;13.434;2023-09-19T11:44:33;22.10;77.70
43338;DHT22;28933;52.492;13.434;2023-09-19T11:47:20;22.10;77.40
43338;DHT22;28933;52.492;13.434;2023-09-19T11:50:08;22.10;77.50
43338;DHT22;28933;52.492;13.434;2023-09-19T11:52:57;22.20;78.00
43338;DHT22;28933;52.492;13.434;2023-09-19T11:55:43;22.30;77.90
43338;DHT22;28933;52.492;13.434;2023-09-19T11:58:31;22.30;77.70
43338;DHT22;28933;52.492;13.434;2023-09-19T12:04:11;22.40;76.60
43338;DHT22;28933;52.492;13.434;2023-09-19T12:06:57;22.50;76.20
43338;DHT22;28933;52.492;13.434;2023-09-19T12:09:47;22.50;75.40
43338;DHT22;28933;52.492;13.434;2023-09-19T12:12:33;22.60;75.50
43338;DHT22;28933;52.492;13.434;2023-09-19T12:15:23;22.60;75.50
43338;DHT22;28933;52.492;13.434;2023-09-19T12:18:29;22.60;75.40
43338;DHT22;28933;52.492;13.434;2023-09-19T12:21:44;22.70;75.80
43338;DHT22;28933;52.492;13.434;2023-09-19T12:24:32;22.80;75.80
43338;DHT22;28933;52.492;13.434;2023-09-19T12:27:18;22.90;75.20
43338;DHT22;28933;52.492;13.434;2023-09-19T12:30:05;22.90;75.00
43338;DHT22;28933;52.492;13.434;2023-09-19T12:32:51;23.00;75.20
43338;DHT22;28933;52.492;13.434;2023-09-19T12:35:37;23.00;74.90
43338;DHT22;28933;52.492;13.434;2023-09-19T12:38:28;23.10;74.30
43338;DHT22;28933;52.492;13.434;2023-09-19T12:41:14;23.20;73.60
43338;DHT22;28933;52.492;13.434;2023-09-19T12:44:00;23.20;73.40
43338;DHT22;28933;52.492;13.434;2023-09-19T12:46:48;23.30;73.40
43338;DHT22;28933;52.492;13.434;2023-09-19T12:49:34;23.40;73.50
43338;DHT22;28933;52.492;13.434;2023-09-19T12:52:20;23.40;73.10
43338;DHT22;28933;52.492;13.434;2023-09-19T12:55:06;23.50;73.40
43338;DHT22;28933;52.492;13.434;2023-09-19T12:58:07;23.50;73.10
43338;DHT22;28933;52.492;13.434;2023-09-19T13:00:55;23.60;72.30
43338;DHT22;28933;52.492;13.434;2023-09-19T13:03:41;23.60;71.80
43338;DHT22;28933;52.492;13.434;2023-09-19T13:06:36;23.60;72.40
43338;DHT22;28933;52.492;13.434;2023-09-19T13:09:29;23.70;71.80
43338;DHT22;28933;52.492;13.434;2023-09-19T13:12:35;23.60;71.50
43338;DHT22;28933;52.492;13.434;2023-09-19T13:15:22;23.60;71.50
43338;DHT22;28933;52.492;13.434;2023-09-19T13:18:11;23.60;71.60
43338;DHT22;28933;52.492;13.434;2023-09-19T13:21:06;23.60;71.70
43338;DHT22;28933;52.492;13.434;2023-09-19T13:24:17;23.60;71.40
43338;DHT22;28933;52.492;13.434;2023-09-19T13:27:02;23.60;70.70
43338;DHT22;28933;52.492;13.434;2023-09-19T13:29:49;23.60;70.80
43338;DHT22;28933;52.492;13.434;2023-09-19T13:32:35;23.60;70.40
43338;DHT22;28933;52.492;13.434;2023-09-19T13:35:21;23.60;70.30
43338;DHT22;28933;52.492;13.434;2023-09-19T13:38:07;23.50;70.70
43338;DHT22;28933;52.492;13.434;2023-09-19T13:40:57;23.60;70.10
43338;DHT22;28933;52.492;13.434;2023-09-19T13:43:46;23.50;70.10
43338;DHT22;28933;52.492;13.434;2023-09-19T13:46:34;23.50;70.10
43338;DHT22;28933;52.492;13.434;2023-09-19T13:49:21;23.50;70.40
43338;DHT22;28933;52.492;13.434;2023-09-19T13:52:07;23.50;70.30
43338;DHT22;28933;52.492;13.434;2023-09-19T13:54:54;23.40;70.00
43338;DHT22;28933;52.492;13.434;2023-09-19T13:57:42;23.40;70.20
43338;DHT22;28933;52.492;13.434;2023-09-19T14:00:29;23.40;70.10
43338;DHT22;28933;52.492;13.434;2023-09-19T14:03:15;23.40;69.60
43338;DHT22;28933;52.492;13.434;2023-09-19T14:06:01;23.40;69.90
43338;DHT22;28933;52.492;13.434;2023-09-19T14:08:47;23.40;69.50
43338;DHT22;28933;52.492;13.434;2023-09-19T14:11:33;23.40;69.40
43338;DHT22;28933;52.492;13.434;2023-09-19T14:14:19;23.40;69.60
43338;DHT22;28933;52.492;13.434;2023-09-19T14:17:08;23.40;69.40
43338;DHT22;28933;52.492;13.434;2023-09-19T14:19:54;23.50;69.60
43338;DHT22;28933;52.492;13.434;2023-09-19T14:22:41;23.50;69.70
43338;DHT22;28933;52.492;13.434;2023-09-19T14:25:27;23.50;70.00
43338;DHT22;28933;52.492;13.434;2023-09-19T14:28:14;23.50;69.80
43338;DHT22;28933;52.492;13.434;2023-09-19T14:31:10;23.60;69.80
43338;DHT22;28933;52.492;13.434;2023-09-19T14:33:57;23.60;69.40
43338;DHT22;28933;52.492;13.434;2023-09-19T14:36:44;23.60;69.50
43338;DHT22;28933;52.492;13.434;2023-09-19T14:39:30;23.60;69.40
43338;DHT22;28933;52.492;13.434;2023-09-19T14:42:16;23.50;69.40
43338;DHT22;28933;52.492;13.434;2023-09-19T14:45:04;23.50;68.90
43338;DHT22;28933;52.492;13.434;2023-09-19T14:47:50;23.50;69.20
43338;DHT22;28933;52.492;13.434;2023-09-19T14:50:40;23.50;69.40
43338;DHT22;28933;52.492;13.434;2023-09-19T14:53:26;23.50;69.40
43338;DHT22;28933;52.492;13.434;2023-09-19T14:56:13;23.40;69.20
43338;DHT22;28933;52.492;13.434;2023-09-19T14:59:04;23.40;69.50
43338;DHT22;28933;52.492;13.434;2023-09-19T15:01:50;23.40;69.30
43338;DHT22;28933;52.492;13.434;2023-09-19T15:04:36;23.40;69.10
43338;DHT22;28933;52.492;13.434;2023-09-19T15:07:22;23.40;68.90
43338;DHT22;28933;52.492;13.434;2023-09-19T15:10:09;23.40;68.40
43338;DHT22;28933;52.492;13.434;2023-09-19T15:12:55;23.30;68.90
43338;DHT22;28933;52.492;13.434;2023-09-19T15:15:41;23.30;68.90
43338;DHT22;28933;52.492;13.434;2023-09-19T15:18:29;23.30;68.80
43338;DHT22;28933;52.492;13.434;2023-09-19T15:21:19;23.30;69.00
43338;DHT22;28933;52.492;13.434;2023-09-19T15:24:05;23.30;69.10
43338;DHT22;28933;52.492;13.434;2023-09-19T15:26:55;23.30;69.10
43338;DHT22;28933;52.492;13.434;2023-09-19T15:29:41;23.30;68.90
43338;DHT22;28933;52.492;13.434;2023-09-19T15:32:27;23.20;68.40
43338;DHT22;28933;52.492;13.434;2023-09-19T15:35:14;23.20;68.60
43338;DHT22;28933;52.492;13.434;2023-09-19T15:38:03;23.20;68.50
43338;DHT22;28933;52.492;13.434;2023-09-19T15:40:49;23.20;68.60
43338;DHT22;28933;52.492;13.434;2023-09-19T15:43:35;23.20;68.60
43338;DHT22;28933;52.492;13.434;2023-09-19T15:46:21;23.20;68.60
43338;DHT22;28933;52.492;13.434;2023-09-19T15:49:08;23.20;68.50
43338;DHT22;28933;52.492;13.434;2023-09-19T15:51:54;23.20;68.50
43338;DHT22;28933;52.492;13.434;2023-09-19T15:54:40;23.20;68.80
43338;DHT22;28933;52.492;13.434;2023-09-19T15:57:30;23.20;68.90
43338;DHT22;28933;52.492;13.434;2023-09-19T16:00:16;23.20;68.90
43338;DHT22;28933;52.492;13.434;2023-09-19T16:03:03;23.20;68.80
43338;DHT22;28933;52.492;13.434;2023-09-19T16:05:49;23.30;68.90
43338;DHT22;28933;52.492;13.434;2023-09-19T16:08:35;23.30;68.80
43338;DHT22;28933;52.492;13.434;2023-09-19T16:11:22;23.30;68.80
43338;DHT22;28933;52.492;13.434;2023-09-19T16:14:08;23.20;68.80
43338;DHT22;28933;52.492;13.434;2023-09-19T16:16:56;23.20;68.90
43338;DHT22;28933;52.492;13.434;2023-09-19T16:19:43;23.20;69.10
43338;DHT22;28933;52.492;13.434;2023-09-19T16:22:29;23.20;69.50
43338;DHT22;28933;52.492;13.434;2023-09-19T16:25:15;23.10;69.70
43338;DHT22;28933;52.492;13.434;2023-09-19T16:28:01;23.00;69.20
43338;DHT22;28933;52.492;13.434;2023-09-19T16:30:48;23.00;68.90
43338;DHT22;28933;52.492;13.434;2023-09-19T16:33:36;23.00;68.90
43338;DHT22;28933;52.492;13.434;2023-09-19T16:36:26;22.90;68.90
43338;DHT22;28933;52.492;13.434;2023-09-19T16:39:12;22.80;69.00
43338;DHT22;28933;52.492;13.434;2023-09-19T16:41:58;22.70;69.10
43338;DHT22;28933;52.492;13.434;2023-09-19T16:44:44;22.70;69.20
43338;DHT22;28933;52.492;13.434;2023-09-19T16:47:30;22.50;69.20
43338;DHT22;28933;52.492;13.434;2023-09-19T16:50:16;22.40;69.50
43338;DHT22;28933;52.492;13.434;2023-09-19T16:53:02;22.30;69.50
43338;DHT22;28933;52.492;13.434;2023-09-19T16:55:49;22.20;69.60
43338;DHT22;28933;52.492;13.434;2023-09-19T16:58:35;22.10;70.00
43338;DHT22;28933;52.492;13.434;2023-09-19T17:01:21;22.00;70.00
43338;DHT22;28933;52.492;13.434;2023-09-19T17:04:09;21.90;69.90
43338;DHT22;28933;52.492;13.434;2023-09-19T17:06:55;21.90;70.20
43338;DHT22;28933;52.492;13.434;2023-09-19T17:09:43;21.80;70.20
43338;DHT22;28933;52.492;13.434;2023-09-19T17:12:29;21.70;70.20
43338;DHT22;28933;52.492;13.434;2023-09-19T17:15:15;21.60;70.60
43338;DHT22;28933;52.492;13.434;2023-09-19T17:18:00;21.60;70.90
43338;DHT22;28933;52.492;13.434;2023-09-19T17:20:46;21.50;71.30
43338;DHT22;28933;52.492;13.434;2023-09-19T17:23:33;21.40;71.50
43338;DHT22;28933;52.492;13.434;2023-09-19T17:26:19;21.30;71.70
43338;DHT22;28933;52.492;13.434;2023-09-19T17:29:10;21.20;72.70
43338;DHT22;28933;52.492;13.434;2023-09-19T17:31:57;21.10;72.30
43338;DHT22;28933;52.492;13.434;2023-09-19T17:34:47;21.00;72.70
43338;DHT22;28933;52.492;13.434;2023-09-19T17:37:33;21.00;73.20
43338;DHT22;28933;52.492;13.434;2023-09-19T17:40:19;20.90;73.40
43338;DHT22;28933;52.492;13.434;2023-09-19T17:43:05;20.80;73.60
43338;DHT22;28933;52.492;13.434;2023-09-19T17:45:51;20.70;73.90
43338;DHT22;28933;52.492;13.434;2023-09-19T17:48:40;20.60;73.90
43338;DHT22;28933;52.492;13.434;2023-09-19T17:51:26;20.60;74.30
43338;DHT22;28933;52.492;13.434;2023-09-19T17:54:12;20.60;74.30
43338;DHT22;28933;52.492;13.434;2023-09-19T17:56:59;20.50;74.40
43338;DHT22;28933;52.492;13.434;2023-09-19T17:59:45;20.50;74.60
43338;DHT22;28933;52.492;13.434;2023-09-19T18:02:32;20.40;74.70
43338;DHT22;28933;52.492;13.434;2023-09-19T18:05:19;20.40;74.80
43338;DHT22;28933;52.492;13.434;2023-09-19T18:08:06;20.40;75.00
43338;DHT22;28933;52.492;13.434;2023-09-19T18:10:52;20.30;75.30